Time;durP1;ratioP1;P1;durP2;ratioP2;P2;SDS_P1;SDS_P2;PMS_P1;PMS_P2;Temp;Humidity;BMP_temperature;BMP_pressure;BME280_temperature;BME280_humidity;BME280_pressure;Samples;Min_cycle;Max_cycle;Signal;HPM_P1;HPM_P2
2022/08/02 00:02:44;;;;;;;;;;;23.70;42.90;;;21.73;46.88;101405.91;12252914;19;19922;-91
2022/08/02 00:06:46;;;;;;;;;;;23.60;43.00;;;21.64;47.00;101388.97;12253212;19;19993;-89
2022/08/02 00:10:48;;;;;;;;;;;23.60;43.10;;;21.32;46.96;101346.69;12250600;19;19918;-90
2022/08/02 00:14:50;;;;;;;;;;;23.50;43.00;;;21.51;47.13;101387.59;12251440;19;19947;-91
2022/08/02 00:18:51;;;;;;;;;;;23.40;43.10;;;21.45;46.96;101390.81;12245813;19;20293;-91
2022/08/02 00:22:53;;;;;;;;;;;23.40;43.10;;;21.52;46.83;101405.19;12255269;19;19919;-91
2022/08/02 00:26:54;;;;;;;;;;;23.40;43.20;;;21.39;46.81;101385.06;12264134;19;19922;-91
2022/08/02 00:30:57;;;;;;;;;;;23.30;43.30;;;21.32;47.18;101389.22;12276505;19;19932;-92
2022/08/02 00:34:58;;;;;;;;;;;23.30;43.00;;;21.31;46.94;101405.31;12273467;19;19945;-90
2022/08/02 00:39:00;;;;;;;;;;;23.20;43.20;;;21.19;47.27;101402.75;12268169;19;19978;-91
2022/08/02 00:43:07;;;;;;;;;;;23.10;43.10;;;21.11;46.94;101407.06;12274133;19;19925;-91
2022/08/02 00:47:09;;;;;;;;;;;23.10;43.20;;;21.12;47.37;101414.09;12273913;19;19922;-90
2022/08/02 00:51:11;;;;;;;;;;;23.00;43.30;;;20.81;47.03;101358.38;12278462;19;19996;-91
2022/08/02 00:55:13;;;;;;;;;;;23.00;43.30;;;20.94;46.94;101382.03;12273752;19;19932;-91
2022/08/02 00:59:15;;;;;;;;;;;22.90;43.30;;;20.83;47.36;101371.53;12266359;19;19926;-91
2022/08/02 01:03:16;;;;;;;;;;;22.90;43.40;;;20.67;47.18;101361.41;12270930;19;19922;-92
2022/08/02 01:07:17;;;;;;;;;;;23.10;43.50;;;20.96;47.57;101411.94;12267493;19;19933;-91
2022/08/02 01:11:19;;;;;;;;;;;22.80;43.60;;;20.89;47.66;101416.09;12275304;19;19935;-90
2022/08/02 01:15:21;;;;;;;;;;;22.80;43.60;;;20.84;47.56;101411.19;12273105;19;19911;-92
2022/08/02 01:19:48;;;;;;;;;;;22.80;44.10;;;20.78;47.71;101407.25;12273764;19;19911;-90
2022/08/02 01:24:15;;;;;;;;;;;23.10;44.00;;;20.99;47.68;101440.88;12267890;19;20338;-91
2022/08/02 01:28:33;;;;;;;;;;;22.80;43.90;;;21.00;47.47;101432.75;12270179;19;19922;-91
2022/08/02 01:32:40;;;;;;;;;;;22.80;44.00;;;20.91;47.58;101416.81;12274075;19;19923;-90
2022/08/02 01:36:54;;;;;;;;;;;22.80;44.00;;;20.96;47.68;101417.25;12270112;19;20298;-91
2022/08/02 01:40:57;;;;;;;;;;;22.80;44.00;;;20.94;47.40;101412.06;12262758;19;19907;-90
2022/08/02 01:45:01;;;;;;;;;;;22.80;44.00;;;20.97;47.50;101416.28;12260174;19;19922;-90
2022/08/02 01:49:06;;;;;;;;;;;22.80;44.00;;;20.85;47.68;101406.75;12258939;19;19911;-90
2022/08/02 01:53:09;;;;;;;;;;;22.80;44.00;;;21.00;47.94;101434.59;12261399;19;19923;-91
2022/08/02 01:57:12;;;;;;;;;;;23.00;44.20;;;21.07;47.74;101443.69;12261529;19;20256;-91
2022/08/02 02:01:15;;;;;;;;;;;22.70;44.20;;;20.86;47.66;101413.72;12259070;19;19926;-91
2022/08/02 02:05:21;;;;;;;;;;;22.80;44.10;;;20.92;47.81;101421.97;12259970;19;19919;-90
2022/08/02 02:09:26;;;;;;;;;;;22.80;44.30;;;20.52;47.86;101358.25;12270170;19;19930;-90
2022/08/02 02:13:28;;;;;;;;;;;22.80;44.20;;;20.87;47.99;101421.53;12271872;19;19934;-90
2022/08/02 02:17:31;;;;;;;;;;;22.80;44.20;;;20.87;47.99;101418.06;12264165;19;19919;-90
2022/08/02 02:21:32;;;;;;;;;;;22.70;44.20;;;20.90;47.99;101431.06;12255580;19;19911;-91
2022/08/02 02:25:35;;;;;;;;;;;22.70;44.20;;;20.72;47.92;101412.28;12253245;19;19932;-90
2022/08/02 02:29:40;;;;;;;;;;;22.60;44.20;;;20.77;47.94;101410.06;12249528;19;20016;-90
2022/08/02 02:34:13;;;;;;;;;;;22.70;44.40;;;20.89;47.99;101434.69;12264783;19;19956;-90
2022/08/02 02:38:17;;;;;;;;;;;22.60;44.40;;;20.59;48.14;101383.31;12261501;19;19923;-91
2022/08/02 02:42:22;;;;;;;;;;;22.60;44.30;;;20.77;48.04;101410.91;12265203;19;19936;-91
2022/08/02 02:46:25;;;;;;;;;;;22.70;44.50;;;20.73;47.90;101406.81;12263877;19;19911;-91
2022/08/02 02:50:28;;;;;;;;;;;22.60;44.40;;;20.72;47.86;101410.47;12259693;19;19923;-91
2022/08/02 02:54:30;;;;;;;;;;;22.60;44.40;;;20.67;48.21;101410.03;12258341;19;19930;-91
2022/08/02 02:58:32;;;;;;;;;;;22.60;44.40;;;20.27;48.03;101357.72;12257181;19;19911;-90
2022/08/02 03:02:36;;;;;;;;;;;22.60;44.10;;;20.57;48.15;101410.94;12256130;19;19915;-90
2022/08/02 03:06:39;;;;;;;;;;;22.50;44.50;;;20.40;48.19;101385.84;12254591;19;20386;-91
2022/08/02 03:10:43;;;;;;;;;;;22.50;44.50;;;20.63;48.51;101429.84;12245935;19;19956;-90
2022/08/02 03:14:44;;;;;;;;;;;22.50;44.40;;;20.58;48.13;101413.50;12250543;19;19919;-90
2022/08/02 03:18:46;;;;;;;;;;;22.50;44.20;;;20.57;48.09;101417.09;12247424;19;19930;-91
2022/08/02 03:22:47;;;;;;;;;;;22.50;44.50;;;20.67;48.66;101446.34;12249219;19;20281;-91
2022/08/02 03:26:48;;;;;;;;;;;22.50;44.70;;;20.18;48.28;101373.59;12250190;19;19928;-91
2022/08/02 03:30:50;;;;;;;;;;;22.50;44.80;;;20.64;48.79;101439.47;12249796;19;19991;-91
2022/08/02 03:34:52;;;;;;;;;;;22.50;44.80;;;20.74;48.51;101450.16;12248335;19;19915;-89
2022/08/02 03:38:54;;;;;;;;;;;22.50;44.80;;;20.73;48.73;101449.28;12245004;19;19935;-90
2022/08/02 03:42:56;;;;;;;;;;;22.50;44.90;;;20.68;48.73;101434.75;12246156;19;19918;-91
2022/08/02 03:47:01;;;;;;;;;;;22.80;44.90;;;20.44;48.51;101398.72;12240975;19;20293;-90
2022/08/02 03:51:03;;;;;;;;;;;22.60;44.90;;;20.83;48.59;101472.41;12249597;19;20261;-90
2022/08/02 03:55:05;;;;;;;;;;;22.70;44.90;;;20.48;48.48;101420.53;12247766;19;19915;-90
2022/08/02 03:59:08;;;;;;;;;;;22.70;44.90;;;20.86;48.49;101480.94;12244661;19;20010;-90
2022/08/02 04:03:09;;;;;;;;;;;22.70;44.90;;;20.30;48.82;101396.41;12250089;19;19911;-90
2022/08/02 04:07:11;;;;;;;;;;;22.70;44.80;;;20.89;48.51;101485.13;12246849;19;19952;-91
2022/08/02 04:11:30;;;;;;;;;;;22.70;44.80;;;20.37;48.59;101391.44;12239287;19;20004;-90
2022/08/02 04:15:32;;;;;;;;;;;22.70;44.70;;;20.81;48.38;101466.38;12241256;19;20258;-91
2022/08/02 04:19:42;;;;;;;;;;;22.70;44.70;;;20.85;48.75;101481.91;12249031;19;19919;-90
2022/08/02 04:23:46;;;;;;;;;;;22.70;44.70;;;20.87;48.82;101481.78;12249411;19;19914;-90
2022/08/02 04:27:47;;;;;;;;;;;22.80;44.70;;;20.83;48.54;101472.41;12251472;19;19928;-90
2022/08/02 04:31:49;;;;;;;;;;;22.90;44.70;;;20.81;48.73;101483.16;12253587;19;19922;-90
2022/08/02 04:35:51;;;;;;;;;;;22.70;44.60;;;20.83;48.72;101491.00;12251153;19;19922;-92
2022/08/02 04:39:52;;;;;;;;;;;22.70;44.70;;;20.46;48.82;101433.91;12251607;19;19914;-91
2022/08/02 04:43:54;;;;;;;;;;;22.70;44.80;;;20.86;48.62;101486.25;12253995;19;19926;-91
2022/08/02 04:47:55;;;;;;;;;;;22.70;44.90;;;20.85;48.85;101492.53;12248471;19;19923;-92
2022/08/02 04:51:57;;;;;;;;;;;23.00;45.00;;;20.91;48.96;101499.13;12254680;19;19915;-89
2022/08/02 04:55:58;;;;;;;;;;;22.80;44.90;;;20.59;48.98;101440.84;12251145;19;19921;-91
2022/08/02 05:00:00;;;;;;;;;;;22.90;44.80;;;21.10;48.88;101519.63;12240377;19;19919;-90
2022/08/02 05:04:02;;;;;;;;;;;22.90;44.70;;;20.75;48.85;101465.94;12241261;19;20620;-90
2022/08/02 05:08:03;;;;;;;;;;;22.90;44.60;;;20.68;48.82;101448.84;12240647;19;19915;-89
2022/08/02 05:12:05;;;;;;;;;;;22.90;44.40;;;20.91;48.62;101491.16;12241183;19;19915;-89
2022/08/02 05:16:07;;;;;;;;;;;22.90;44.50;;;20.73;48.69;101462.56;12252279;19;20376;-90
2022/08/02 05:20:12;;;;;;;;;;;22.90;44.40;;;21.04;48.88;101504.22;12250140;19;19919;-91
2022/08/02 05:24:14;;;;;;;;;;;22.90;44.30;;;21.07;48.55;101504.78;12251539;19;19997;-90
2022/08/02 05:28:15;;;;;;;;;;;23.30;44.40;;;21.21;48.55;101538.94;12251773;19;20230;-88
2022/08/02 05:32:17;;;;;;;;;;;23.00;44.30;;;21.21;48.82;101538.94;12254537;19;19915;-90
2022/08/02 05:36:19;;;;;;;;;;;23.20;44.40;;;20.75;48.89;101460.63;12255227;19;19982;-88
2022/08/02 05:40:20;;;;;;;;;;;23.10;44.30;;;20.97;48.59;101490.63;12247973;19;19919;-89
2022/08/02 05:44:22;;;;;;;;;;;23.00;44.10;;;20.82;48.71;101470.72;12250743;19;19945;-89
2022/08/02 05:48:23;;;;;;;;;;;23.10;44.10;;;20.92;48.78;101484.88;12250640;19;19919;-87
2022/08/02 05:52:30;;;;;;;;;;;23.10;44.10;;;21.34;48.66;101543.19;12254688;19;19958;-89
2022/08/02 05:56:55;;;;;;;;;;;23.10;44.00;;;20.78;48.62;101447.09;12252027;19;20344;-86
2022/08/02 06:00:58;;;;;;;;;;;23.20;43.90;;;21.42;48.95;101532.75;12250140;19;19915;-88
2022/08/02 06:05:10;;;;;;;;;;;23.30;43.90;;;21.61;48.53;101551.41;12248635;19;19931;-86
2022/08/02 06:09:17;;;;;;;;;;;23.40;43.80;;;21.76;49.01;101546.53;12248408;19;19911;-88
2022/08/02 06:13:19;;;;;;;;;;;23.50;43.80;;;21.93;48.63;101553.00;12249928;19;19927;-90
2022/08/02 06:17:21;;;;;;;;;;;23.90;44.00;;;22.07;48.75;101546.44;12250230;19;19964;-89
2022/08/02 06:21:24;;;;;;;;;;;23.80;43.80;;;22.04;48.31;101546.72;12249469;19;19911;-88
2022/08/02 06:25:27;;;;;;;;;;;23.80;43.60;;;22.05;48.63;101538.59;12246855;19;19919;-86
2022/08/02 06:29:31;;;;;;;;;;;24.00;43.60;;;22.20;48.27;101547.03;12247092;19;19931;-89
2022/08/02 06:33:32;;;;;;;;;;;24.40;43.60;;;22.28;48.35;101564.97;12250683;19;19915;-91
2022/08/02 06:37:42;;;;;;;;;;;24.00;43.40;;;22.37;48.48;101571.25;12247983;19;19923;-89
2022/08/02 06:41:47;;;;;;;;;;;24.20;43.20;;;22.24;48.41;101559.06;12249089;19;19958;-88
2022/08/02 06:45:57;;;;;;;;;;;24.10;43.00;;;21.98;48.28;101499.38;12246296;19;19938;-87
2022/08/02 06:49:58;;;;;;;;;;;24.20;42.90;;;21.94;48.22;101495.34;12247470;19;19914;-88
2022/08/02 06:54:00;;;;;;;;;;;24.20;42.70;;;22.15;48.18;101517.31;12250000;19;19914;-89
2022/08/02 06:58:02;;;;;;;;;;;24.30;42.70;;;22.24;48.17;101529.78;12246618;19;19911;-89
2022/08/02 07:02:03;;;;;;;;;;;24.30;42.70;;;22.22;48.24;101510.47;12243625;19;19925;-90
2022/08/02 07:06:09;;;;;;;;;;;24.30;42.60;;;22.07;48.04;101472.78;12244550;19;19915;-89
2022/08/02 07:10:13;;;;;;;;;;;24.40;42.70;;;22.30;47.83;101494.66;12243869;19;19943;-90
2022/08/02 07:14:14;;;;;;;;;;;24.50;42.60;;;22.60;47.82;101526.53;12246493;19;19919;-88
2022/08/02 07:18:16;;;;;;;;;;;24.60;42.60;;;22.32;47.77;101470.53;12243808;19;19935;-89
2022/08/02 07:22:22;;;;;;;;;;;24.80;42.50;;;22.58;47.90;101500.06;12246378;19;19915;-89
2022/08/02 07:26:23;;;;;;;;;;;24.70;42.60;;;22.78;47.47;101506.16;12245361;19;19939;-90
2022/08/02 07:30:25;;;;;;;;;;;24.70;42.50;;;22.84;47.69;101500.22;12243348;19;19915;-89
2022/08/02 07:34:26;;;;;;;;;;;24.80;42.40;;;23.18;47.44;101527.19;12245637;19;19914;-88
2022/08/02 07:38:28;;;;;;;;;;;24.90;42.50;;;22.94;47.72;101453.09;12242519;19;19910;-87
2022/08/02 07:42:29;;;;;;;;;;;25.10;42.70;;;23.62;47.33;101531.88;12247617;19;19923;-88
2022/08/02 07:46:32;;;;;;;;;;;25.20;42.80;;;23.64;47.71;101524.56;12246666;19;20559;-87
2022/08/02 07:50:33;;;;;;;;;;;25.30;43.20;;;23.62;47.47;101487.38;12242869;19;19911;-89
2022/08/02 07:54:35;;;;;;;;;;;25.80;43.10;;;24.16;47.41;101529.25;12239877;19;19923;-88
2022/08/02 07:58:36;;;;;;;;;;;25.70;43.30;;;24.33;47.41;101525.75;12245573;19;19918;-88
2022/08/02 08:02:38;;;;;;;;;;;25.90;43.20;;;24.36;47.11;101508.53;12243603;19;19928;-91
2022/08/02 08:06:39;;;;;;;;;;;26.00;43.10;;;24.50;47.55;101514.19;12246097;19;20466;-88
2022/08/02 08:10:41;;;;;;;;;;;26.20;42.90;;;24.60;47.44;101506.09;12241780;19;19923;-89
2022/08/02 08:14:43;;;;;;;;;;;26.30;43.00;;;24.91;47.15;101537.66;12246574;19;19923;-88
2022/08/02 08:18:44;;;;;;;;;;;26.50;42.90;;;24.60;47.05;101474.03;12242408;19;19951;-88
2022/08/02 08:22:46;;;;;;;;;;;26.60;42.10;;;24.86;46.88;101531.94;12245248;19;19919;-88
2022/08/02 08:26:48;;;;;;;;;;;26.80;42.50;;;24.64;47.27;101490.59;12244609;19;19923;-89
2022/08/02 08:30:49;;;;;;;;;;;26.60;42.50;;;25.00;47.32;101534.00;12229628;19;19931;-89
2022/08/02 08:34:51;;;;;;;;;;;26.70;42.40;;;25.09;46.95;101526.91;12243575;19;20255;-89
2022/08/02 08:38:52;;;;;;;;;;;26.80;42.40;;;24.83;46.66;101479.66;12239495;19;19914;-89
2022/08/02 08:42:53;;;;;;;;;;;26.80;42.30;;;24.93;46.71;101515.13;12242724;19;20279;-87
2022/08/02 08:46:55;;;;;;;;;;;26.80;42.00;;;24.54;47.06;101453.28;12241379;19;19921;-88
2022/08/02 08:51:00;;;;;;;;;;;26.80;41.80;;;24.81;46.72;101492.34;12255143;19;19915;-89
2022/08/02 08:55:07;;;;;;;;;;;26.80;41.60;;;24.89;46.92;101491.53;12255104;19;19923;-89
2022/08/02 08:59:09;;;;;;;;;;;27.10;42.20;;;24.99;47.00;101476.22;12254101;19;19922;-88
2022/08/02 09:03:10;;;;;;;;;;;26.90;42.30;;;25.14;46.63;101466.59;12256838;19;19914;-92
2022/08/02 09:07:12;;;;;;;;;;;27.00;42.50;;;25.49;46.96;101485.25;12255646;19;19978;-88
2022/08/02 09:11:15;;;;;;;;;;;27.20;42.80;;;25.55;46.82;101469.41;12251814;19;19918;-90
2022/08/02 09:15:23;;;;;;;;;;;27.40;42.50;;;25.51;46.55;101435.94;12255800;19;19990;-88
2022/08/02 09:19:25;;;;;;;;;;;27.50;42.60;;;26.17;46.36;101522.50;12251122;19;19938;-90
2022/08/02 09:23:34;;;;;;;;;;;27.70;42.70;;;25.91;46.01;101470.97;12254542;19;19919;-87
2022/08/02 09:27:36;;;;;;;;;;;27.80;42.50;;;25.74;45.99;101457.56;12251363;19;20435;-90
2022/08/02 09:31:37;;;;;;;;;;;27.80;41.80;;;26.07;46.44;101497.75;12255297;19;20361;-88
2022/08/02 09:35:39;;;;;;;;;;;27.70;41.70;;;26.10;46.11;101504.59;12255565;19;19928;-88
2022/08/02 09:39:44;;;;;;;;;;;27.80;41.80;;;26.05;45.98;101491.72;12252634;19;19941;-88
2022/08/02 09:43:46;;;;;;;;;;;27.80;41.70;;;26.03;46.02;101474.97;12251765;19;19918;-88
2022/08/02 09:47:48;;;;;;;;;;;27.90;41.70;;;25.96;45.76;101480.16;12253912;19;20416;-88
2022/08/02 09:51:52;;;;;;;;;;;27.80;41.40;;;25.96;46.40;101484.69;12253651;19;20543;-89
2022/08/02 09:55:56;;;;;;;;;;;28.00;41.60;;;25.98;46.28;101488.06;12253627;19;20338;-88
2022/08/02 09:59:58;;;;;;;;;;;27.80;41.60;;;26.12;45.95;101499.94;12246658;19;20401;-88
2022/08/02 10:04:03;;;;;;;;;;;27.80;41.50;;;26.16;45.98;101488.69;12251425;19;20346;-89
2022/08/02 10:08:05;;;;;;;;;;;27.80;41.60;;;25.96;46.02;101439.19;12251778;19;19918;-88
2022/08/02 10:12:06;;;;;;;;;;;28.00;41.50;;;26.35;46.14;101482.13;12254705;19;19928;-88
2022/08/02 10:16:08;;;;;;;;;;;28.00;41.60;;;26.58;45.91;101495.69;12252863;19;19919;-88
2022/08/02 10:20:10;;;;;;;;;;;28.10;41.70;;;26.37;45.55;101429.25;12249424;19;20302;-88
2022/08/02 10:24:17;;;;;;;;;;;28.20;41.50;;;26.83;45.74;101493.78;12250682;19;19923;-89
2022/08/02 10:28:24;;;;;;;;;;;28.50;41.70;;;26.67;45.38;101464.34;12251809;19;19927;-89
2022/08/02 10:32:30;;;;;;;;;;;28.50;40.90;;;26.77;45.52;101485.59;12252972;19;19968;-90
2022/08/02 10:36:32;;;;;;;;;;;28.60;41.00;;;26.47;45.44;101426.38;12252324;19;19914;-89
2022/08/02 10:40:47;;;;;;;;;;;28.50;41.00;;;26.96;45.55;101503.13;12248476;19;19922;-87
2022/08/02 10:45:07;;;;;;;;;;;28.60;41.20;;;26.89;45.40;101485.03;12251609;19;19927;-90
2022/08/02 10:49:27;;;;;;;;;;;28.60;41.00;;;26.81;45.35;101450.22;12249994;19;20242;-88
2022/08/02 10:53:30;;;;;;;;;;;28.70;41.10;;;26.95;45.62;101442.47;12253324;19;20609;-89
2022/08/02 10:57:33;;;;;;;;;;;28.90;41.10;;;27.30;45.43;101484.91;12250539;19;19923;-88
2022/08/02 11:01:42;;;;;;;;;;;28.90;40.40;;;27.23;45.15;101464.31;12251462;19;19915;-89
2022/08/02 11:05:59;;;;;;;;;;;28.90;40.60;;;26.96;45.23;101398.59;12247505;19;19919;-89
2022/08/02 11:10:29;;;;;;;;;;;29.00;40.80;;;27.58;44.77;101468.28;12247027;19;19923;-88
2022/08/02 11:14:34;;;;;;;;;;;29.20;40.40;;;27.62;44.75;101448.13;12249499;19;19926;-89
2022/08/02 11:18:59;;;;;;;;;;;29.20;40.40;;;27.78;44.66;101437.25;12250758;19;19911;-89
2022/08/02 11:23:34;;;;;;;;;;;29.30;40.30;;;27.90;44.57;101447.63;12250264;19;19923;-90
2022/08/02 11:27:36;;;;;;;;;;;29.40;40.20;;;27.89;44.59;101411.88;12251164;19;19919;-88
2022/08/02 11:31:40;;;;;;;;;;;29.50;40.50;;;27.86;44.48;101371.13;12249600;19;19922;-90
2022/08/02 11:35:42;;;;;;;;;;;29.70;38.50;;;27.99;44.34;101382.06;12246820;19;19935;-88
2022/08/02 11:39:50;;;;;;;;;;;29.80;38.70;;;27.99;44.25;101360.59;12239757;19;19927;-89
2022/08/02 11:43:55;;;;;;;;;;;29.90;38.90;;;28.26;44.11;101398.59;12242778;19;19918;-89
2022/08/02 11:47:56;;;;;;;;;;;29.90;40.30;;;28.07;43.63;101359.69;12244327;19;19915;-88
2022/08/02 11:52:03;;;;;;;;;;;30.00;39.50;;;28.51;43.70;101423.34;12245448;19;19915;-90
2022/08/02 11:56:05;;;;;;;;;;;30.00;39.90;;;28.54;43.51;101413.06;12246595;19;19914;-88
2022/08/02 12:00:17;;;;;;;;;;;30.10;39.30;;;28.72;43.69;101430.66;12241594;19;19914;-89
2022/08/02 12:04:19;;;;;;;;;;;30.20;39.20;;;28.70;43.65;101398.59;12245067;19;19932;-87
2022/08/02 12:08:23;;;;;;;;;;;30.30;39.50;;;28.74;43.66;101396.38;12245095;19;20245;-90
2022/08/02 12:12:24;;;;;;;;;;;30.40;38.90;;;28.83;43.51;101395.22;12247013;19;19927;-90
2022/08/02 12:20:56;;;;;;;;;;;30.50;39.10;;;28.95;43.10;101399.13;12244904;19;19915;-88
2022/08/02 12:24:58;;;;;;;;;;;30.60;37.40;;;28.88;43.16;101371.31;12242570;19;19914;-90
2022/08/02 12:29:00;;;;;;;;;;;30.60;39.30;;;29.06;42.63;101377.13;12243698;19;19915;-89
2022/08/02 12:33:08;;;;;;;;;;;30.70;39.10;;;29.21;42.82;101378.91;12245258;19;19932;-89
2022/08/02 12:37:09;;;;;;;;;;;30.80;38.90;;;29.30;42.57;101369.69;12243851;19;19922;-89
2022/08/02 12:41:12;;;;;;;;;;;30.90;39.60;;;29.38;42.42;101371.41;12244723;19;19986;-88
2022/08/02 12:45:14;;;;;;;;;;;30.90;38.40;;;29.19;42.24;101328.00;12240978;19;20270;-90
2022/08/02 12:49:17;;;;;;;;;;;31.20;39.00;;;29.54;42.23;101387.28;12242784;19;19923;-90
2022/08/02 12:53:18;;;;;;;;;;;31.00;38.80;;;29.50;42.14;101372.56;12242910;19;19922;-91
2022/08/02 12:57:19;;;;;;;;;;;31.10;38.40;;;29.59;42.14;101375.97;12244093;19;19933;-88
2022/08/02 13:01:23;;;;;;;;;;;31.10;38.80;;;29.47;42.20;101351.44;12243825;19;19915;-89
2022/08/02 13:05:25;;;;;;;;;;;31.20;39.00;;;29.70;41.86;101373.59;12241210;19;19921;-90
2022/08/02 13:09:27;;;;;;;;;;;31.30;38.50;;;29.75;42.05;101357.69;12242557;19;20260;-90
2022/08/02 13:13:28;;;;;;;;;;;31.30;38.60;;;29.82;41.71;101344.28;12245219;19;19923;-90
2022/08/02 13:17:29;;;;;;;;;;;31.40;38.70;;;29.74;41.33;101315.63;12243727;19;19919;-89
2022/08/02 13:21:31;;;;;;;;;;;31.50;38.30;;;30.07;41.32;101362.66;12245242;19;20258;-91
2022/08/02 13:25:32;;;;;;;;;;;31.60;38.70;;;30.03;41.27;101340.69;12240324;19;20009;-91
2022/08/02 13:29:35;;;;;;;;;;;31.70;38.40;;;30.06;41.34;101344.84;12242688;19;19911;-90
2022/08/02 13:33:36;;;;;;;;;;;31.70;38.00;;;30.25;41.40;101346.84;12244482;19;20362;-89
2022/08/02 13:37:40;;;;;;;;;;;31.70;38.30;;;30.27;41.04;101335.84;12254519;19;20285;-89
2022/08/02 13:41:42;;;;;;;;;;;31.90;37.80;;;30.37;41.24;101342.53;12256422;19;19911;-90
2022/08/02 13:45:43;;;;;;;;;;;31.90;37.60;;;30.43;40.82;101341.75;12252632;19;19922;-88
2022/08/02 13:49:44;;;;;;;;;;;32.00;35.80;;;30.23;41.16;101318.44;12252116;19;20284;-91
2022/08/02 13:53:46;;;;;;;;;;;32.00;37.10;;;30.11;41.11;101305.50;12255337;19;19923;-92
2022/08/02 13:57:48;;;;;;;;;;;32.00;37.40;;;30.29;40.91;101323.84;12254644;19;19931;-89
2022/08/02 14:01:50;;;;;;;;;;;32.00;37.20;;;29.95;40.67;101257.34;12251547;19;19926;-90
2022/08/02 14:05:52;;;;;;;;;;;32.00;37.20;;;30.37;40.85;101331.75;12250453;19;19944;-91
2022/08/02 14:09:53;;;;;;;;;;;31.90;37.40;;;30.12;40.60;101263.22;12248047;19;19918;-90
2022/08/02 14:13:55;;;;;;;;;;;32.00;37.00;;;30.47;40.30;101307.13;12250797;19;19918;-90
2022/08/02 14:17:57;;;;;;;;;;;32.00;36.80;;;30.04;40.51;101225.69;12251746;19;19903;-90
2022/08/02 14:21:58;;;;;;;;;;;32.10;36.80;;;30.12;40.43;101245.19;12251549;19;19918;-90
2022/08/02 14:25:59;;;;;;;;;;;32.10;37.20;;;30.65;39.84;101306.59;12250417;19;19978;-89
2022/08/02 14:30:01;;;;;;;;;;;32.20;37.50;;;30.51;39.83;101270.63;12250159;19;19928;-91
2022/08/02 14:34:02;;;;;;;;;;;32.20;37.10;;;30.40;39.73;101230.81;12250606;19;19926;-91
2022/08/02 14:38:04;;;;;;;;;;;32.20;36.70;;;30.46;39.73;101235.41;12249669;19;19950;-90
2022/08/02 14:42:06;;;;;;;;;;;32.30;36.90;;;30.72;39.83;101268.84;12251275;19;19923;-89
2022/08/02 14:46:08;;;;;;;;;;;32.30;36.80;;;30.25;39.38;101190.56;12247992;19;20313;-90
2022/08/02 14:50:10;;;;;;;;;;;32.40;36.70;;;30.84;39.10;101270.75;12246064;19;19943;-90
2022/08/02 14:54:11;;;;;;;;;;;32.40;36.90;;;30.65;39.53;101244.56;12250701;19;19917;-90
2022/08/02 14:58:13;;;;;;;;;;;32.40;36.50;;;30.80;39.58;101269.50;12248226;19;19915;-89
2022/08/02 15:02:14;;;;;;;;;;;32.40;35.70;;;30.82;39.34;101269.31;12249444;19;19960;-90
2022/08/02 15:06:16;;;;;;;;;;;32.40;36.10;;;30.80;39.22;101261.41;12247623;19;20267;-90
2022/08/02 15:10:17;;;;;;;;;;;32.40;36.20;;;30.68;39.08;101246.84;12248174;19;19935;-90
2022/08/02 15:14:20;;;;;;;;;;;32.40;36.30;;;30.65;39.21;101237.31;12252331;19;20329;-90
2022/08/02 15:18:21;;;;;;;;;;;32.40;36.30;;;30.47;39.22;101195.78;12247408;19;19927;-91
2022/08/02 15:22:23;;;;;;;;;;;32.40;36.00;;;30.56;39.13;101206.16;12249303;19;19925;-89
2022/08/02 15:26:24;;;;;;;;;;;32.40;36.20;;;30.79;38.79;101232.75;12247511;19;19923;-91
2022/08/02 15:30:26;;;;;;;;;;;32.50;36.10;;;30.89;39.00;101253.13;12245162;19;19919;-90
2022/08/02 15:34:27;;;;;;;;;;;32.50;36.30;;;30.54;38.74;101193.91;12248702;19;20381;-89
2022/08/02 15:38:29;;;;;;;;;;;32.50;35.80;;;30.58;38.78;101209.50;12246636;19;20385;-90
2022/08/02 15:42:30;;;;;;;;;;;32.50;36.00;;;30.59;38.68;101215.69;12244795;19;20401;-89
2022/08/02 15:46:34;;;;;;;;;;;32.40;36.00;;;30.45;38.52;101193.28;12245908;19;19922;-90
2022/08/02 15:50:35;;;;;;;;;;;32.40;35.90;;;30.78;38.41;101257.22;12244890;19;20099;-90
2022/08/02 15:54:37;;;;;;;;;;;32.40;35.70;;;30.71;38.75;101251.84;12246533;19;19950;-89
2022/08/02 15:58:38;;;;;;;;;;;32.50;36.00;;;30.72;38.84;101248.09;12245098;19;19932;-89
2022/08/02 16:02:40;;;;;;;;;;;32.30;35.80;;;30.65;38.37;101240.00;12248666;19;20385;-89
2022/08/02 16:06:42;;;;;;;;;;;32.30;35.90;;;30.65;38.32;101249.97;12250782;19;19929;-90
2022/08/02 16:10:44;;;;;;;;;;;32.20;35.70;;;30.58;38.23;101239.16;12248085;19;19914;-90
2022/08/02 16:14:45;;;;;;;;;;;32.20;35.50;;;30.51;38.40;101226.69;12250922;19;19986;-90
2022/08/02 16:18:47;;;;;;;;;;;32.20;35.50;;;30.52;38.19;101231.06;12248651;19;20326;-91
2022/08/02 16:22:48;;;;;;;;;;;32.20;35.90;;;30.59;38.28;101237.28;12248584;19;19939;-90
2022/08/02 16:26:50;;;;;;;;;;;32.20;35.80;;;30.40;38.15;101201.97;12249243;19;19911;-90
2022/08/02 16:30:51;;;;;;;;;;;32.20;35.70;;;30.37;38.25;101190.78;12248464;19;19948;-91
2022/08/02 16:34:53;;;;;;;;;;;32.20;36.00;;;30.19;38.05;101162.53;12246160;19;20235;-90
2022/08/02 16:38:54;;;;;;;;;;;32.20;35.80;;;30.42;38.06;101209.88;12242295;19;19918;-89
2022/08/02 16:42:56;;;;;;;;;;;32.10;36.10;;;30.41;38.13;101202.84;12247065;19;20393;-90
2022/08/02 16:46:58;;;;;;;;;;;32.10;35.70;;;30.35;38.07;101212.56;12247427;19;19919;-91
2022/08/02 16:50:59;;;;;;;;;;;32.00;36.00;;;30.22;38.01;101172.06;12247114;19;19918;-89
2022/08/02 16:55:00;;;;;;;;;;;32.00;35.70;;;30.28;37.81;101189.31;12246764;19;19918;-90
2022/08/02 16:59:01;;;;;;;;;;;32.00;35.70;;;30.07;37.29;101166.00;12246654;19;19919;-89
2022/08/02 17:03:03;;;;;;;;;;;32.00;36.00;;;29.99;37.89;101142.78;12237752;19;19924;-90
2022/08/02 17:07:05;;;;;;;;;;;32.00;35.50;;;29.96;37.79;101141.31;12246389;19;19922;-90
2022/08/02 17:11:07;;;;;;;;;;;32.00;36.10;;;30.29;37.69;101199.88;12259852;19;19915;-90
2022/08/02 17:15:09;;;;;;;;;;;32.00;35.60;;;30.37;37.52;101206.97;12259392;19;20321;-89
2022/08/02 17:19:10;;;;;;;;;;;31.90;35.50;;;30.05;37.90;101160.00;12257415;19;19915;-90
2022/08/02 17:23:11;;;;;;;;;;;31.90;35.60;;;30.11;37.67;101180.72;12259268;19;20285;-91
2022/08/02 17:27:12;;;;;;;;;;;31.90;35.60;;;30.31;37.50;101210.47;12258694;19;19922;-92
2022/08/02 17:31:14;;;;;;;;;;;31.90;35.90;;;30.25;37.63;101203.22;12257409;19;19923;-89
2022/08/02 17:35:15;;;;;;;;;;;31.90;35.90;;;30.06;37.70;101185.91;12258371;19;19921;-92
2022/08/02 17:39:16;;;;;;;;;;;31.80;35.80;;;29.87;37.83;101169.47;12252096;19;19915;-90
2022/08/02 17:43:18;;;;;;;;;;;31.80;35.90;;;29.82;37.79;101163.84;12254505;19;19940;-90
2022/08/02 17:47:20;;;;;;;;;;;31.80;36.00;;;29.81;38.03;101182.91;12253283;19;20305;-92
2022/08/02 17:51:22;;;;;;;;;;;31.70;36.30;;;30.03;37.87;101235.63;12254844;19;19940;-91
2022/08/02 17:55:24;;;;;;;;;;;31.70;36.10;;;29.90;37.78;101224.81;12254294;19;19915;-90
2022/08/02 17:59:26;;;;;;;;;;;31.60;36.10;;;29.70;37.21;101208.53;12251766;19;19918;-90
2022/08/02 18:03:28;;;;;;;;;;;31.50;36.00;;;29.52;37.76;101195.56;12252992;19;19956;-91
2022/08/02 18:07:29;;;;;;;;;;;31.40;36.10;;;29.40;37.95;101219.50;12252417;19;19911;-90
2022/08/02 18:11:31;;;;;;;;;;;31.30;36.10;;;28.89;37.61;101147.94;12255033;19;19915;-92
2022/08/02 18:15:32;;;;;;;;;;;31.10;36.00;;;29.26;37.73;101228.50;12255011;19;19927;-91
2022/08/02 18:19:33;;;;;;;;;;;31.00;36.00;;;29.22;37.95;101240.69;12248978;19;19922;-91